Time;durP1;ratioP1;P1;durP2;ratioP2;P2;SDS_P1;SDS_P2;PMS_P1;PMS_P2;Temp;Humidity;BMP_temperature;BMP_pressure;BME280_temperature;BME280_humidity;BME280_pressure;Samples;Min_cycle;Max_cycle;Signal;HPM_P1;HPM_P2
2022/01/26 00:00:55;;;;;;;8.27;7.47;;;22.20;41.50;;;;;;5004455;28;44045;-68
2022/01/26 00:06:20;;;;;;;8.35;7.45;;;22.20;41.40;;;;;;5019025;28;43432;-70
2022/01/26 00:08:49;;;;;;;8.27;7.47;;;22.10;41.50;;;;;;5002981;28;43457;-69
2022/01/26 00:11:17;;;;;;;7.88;7.05;;;22.10;41.40;;;;;;5003992;28;43692;-69
2022/01/26 00:13:45;;;;;;;9.25;7.72;;;22.10;41.50;;;;;;4997958;28;45399;-69
2022/01/26 00:16:26;;;;;;;8.48;7.55;;;22.10;41.60;;;;;;5002956;28;43506;-68
2022/01/26 00:18:59;;;;;;;8.68;7.80;;;22.10;41.60;;;;;;5003599;28;43445;-68
2022/01/26 00:21:47;;;;;;;8.45;7.57;;;22.10;41.60;;;;;;5020269;28;43500;-70
2022/01/26 00:24:37;;;;;;;8.18;7.38;;;22.00;41.50;;;;;;5000263;28;45769;-69
2022/01/26 00:27:22;;;;;;;8.68;7.88;;;22.00;41.60;;;;;;4987042;28;43541;-70
2022/01/26 00:30:01;;;;;;;8.90;7.47;;;22.00;41.60;;;;;;5001209;28;43529;-70
2022/01/26 00:41:03;;;;;;;8.73;7.82;;;22.00;41.60;;;;;;5007616;28;43541;-68
2022/01/26 00:43:31;;;;;;;9.18;8.27;;;21.90;41.60;;;;;;5006391;28;43548;-69
2022/01/26 00:46:00;;;;;;;8.77;7.82;;;21.90;41.60;;;;;;5004227;28;44028;-70
2022/01/26 00:48:32;;;;;;;9.02;8.13;;;21.90;41.60;;;;;;5006467;28;43488;-69
2022/01/26 00:51:03;;;;;;;8.85;8.02;;;21.90;41.60;;;;;;5007096;28;43443;-70
2022/01/26 00:54:14;;;;;;;9.15;8.05;;;21.90;41.60;;;;;;5003512;28;43575;-69
2022/01/26 00:56:22;;;;;;;9.25;8.27;;;21.90;41.60;;;;;;5006008;28;45311;-67
2022/01/26 00:58:49;;;;;;;9.57;8.68;;;21.90;41.60;;;;;;5021870;28;43467;-68
2022/01/26 01:01:17;;;;;;;8.98;8.07;;;21.90;41.70;;;;;;5010396;28;43434;-68
2022/01/26 01:03:47;;;;;;;9.02;8.10;;;21.90;41.60;;;;;;5003327;28;44137;-68
2022/01/26 01:06:27;;;;;;;8.70;7.80;;;21.80;41.60;;;;;;5019128;28;46183;-70
2022/01/26 01:08:57;;;;;;;9.48;8.48;;;21.80;41.60;;;;;;5006918;28;43525;-70
2022/01/26 01:11:26;;;;;;;9.05;8.15;;;21.80;41.70;;;;;;5003972;28;43532;-68
2022/01/26 01:13:55;;;;;;;9.48;8.27;;;21.80;41.60;;;;;;5005777;28;43541;-69
2022/01/26 01:16:23;;;;;;;9.25;8.30;;;21.80;41.60;;;;;;5002267;28;45267;-68
2022/01/26 01:32:01;;;;;;;9.38;8.35;;;21.70;41.70;;;;;;5005268;28;43521;-70
2022/01/26 01:34:39;;;;;;;8.93;8.02;;;21.70;41.70;;;;;;5017735;28;43472;-69
2022/01/26 01:37:10;;;;;;;9.10;8.18;;;21.70;41.70;;;;;;5006313;28;45261;-68
2022/01/26 01:39:37;;;;;;;;;;;21.70;41.70;;;;;;5004734;28;44685;-69
2022/01/26 01:42:07;;;;;;;9.15;8.20;;;21.70;41.70;;;;;;4984841;28;43494;-68
2022/01/26 01:44:36;;;;;;;9.27;8.37;;;21.60;41.70;;;;;;5019564;28;43496;-68
2022/01/26 01:47:06;;;;;;;8.98;8.07;;;21.60;41.70;;;;;;5002499;28;44071;-68
2022/01/26 01:49:35;;;;;;;10.25;9.20;;;21.60;41.70;;;;;;5002882;28;44138;-68
2022/01/26 01:52:05;;;;;;;9.40;8.40;;;21.60;41.70;;;;;;5005416;28;43533;-70
2022/01/26 01:54:33;;;;;;;10.07;8.73;;;21.60;41.70;;;;;;5005131;28;43425;-69
2022/01/26 01:57:00;;;;;;;9.52;8.52;;;21.60;41.70;;;;;;5005606;28;43916;-69
2022/01/26 01:59:32;;;;;;;9.32;8.20;;;21.60;41.70;;;;;;5002557;28;44701;-70
2022/01/26 02:02:01;;;;;;;9.93;8.93;;;21.50;41.70;;;;;;5005687;28;43689;-68
2022/01/26 02:04:29;;;;;;;10.13;8.55;;;21.50;41.70;;;;;;5005841;28;43733;-68
2022/01/26 02:06:56;;;;;;;8.60;7.70;;;21.50;41.70;;;;;;5016208;28;44370;-68
2022/01/26 02:09:24;;;;;;;9.18;8.27;;;21.50;41.70;;;;;;5009216;28;43500;-70
2022/01/26 02:11:54;;;;;;;9.52;8.60;;;21.50;41.70;;;;;;5000809;28;43506;-70
2022/01/26 02:14:45;;;;;;;9.98;8.70;;;21.50;41.70;;;;;;5004870;28;43518;-69
2022/01/26 02:52:54;;;;;;;10.30;9.25;;;21.30;41.80;;;;;;5003674;28;44441;-69
2022/01/26 02:55:34;;;;;;;9.23;8.32;;;21.30;41.80;;;;;;4999172;28;43559;-69
2022/01/26 02:58:38;;;;;;;9.77;8.77;;;21.30;41.90;;;;;;5004775;28;43438;-68
2022/01/26 03:03:39;;;;;;;9.05;8.18;;;21.20;41.80;;;;;;5004087;28;45131;-69
2022/01/26 03:06:12;;;;;;;10.05;9.02;;;21.20;41.80;;;;;;4987639;28;43397;-68
2022/01/26 03:08:47;;;;;;;9.77;8.73;;;21.20;41.90;;;;;;5001767;28;44010;-69
2022/01/26 03:11:15;;;;;;;9.68;8.68;;;21.20;41.90;;;;;;5004448;28;43796;-69
2022/01/26 03:13:49;;;;;;;9.85;8.82;;;21.20;41.90;;;;;;5003759;28;43465;-69
2022/01/26 03:16:26;;;;;;;10.23;9.18;;;21.20;41.90;;;;;;5000651;28;43520;-69
2022/01/26 03:21:44;;;;;;;10.40;8.60;;;21.20;41.90;;;;;;5000508;28;44058;-68
2022/01/26 03:29:57;;;;;;;9.52;8.52;;;21.10;41.90;;;;;;5005827;28;43596;-68
2022/01/26 03:35:17;;;;;;;9.90;8.88;;;21.10;42.00;;;;;;4983148;28;43471;-68
2022/01/26 03:37:54;;;;;;;10.07;8.98;;;21.10;41.90;;;;;;5017459;28;43452;-68
2022/01/26 03:40:30;;;;;;;9.70;8.77;;;21.10;41.90;;;;;;5008040;28;43515;-70
2022/01/26 03:42:58;;;;;;;10.18;9.07;;;21.10;42.00;;;;;;4998326;28;45676;-69
2022/01/26 03:45:26;;;;;;;10.70;9.30;;;21.00;41.90;;;;;;5000991;28;44383;-68
2022/01/26 03:47:55;;;;;;;10.27;9.27;;;21.00;41.90;;;;;;5001005;28;43493;-67
2022/01/26 03:50:23;;;;;;;10.57;9.48;;;21.00;41.80;;;;;;5001719;28;43965;-69
2022/01/26 03:52:51;;;;;;;10.73;8.85;;;21.00;41.90;;;;;;5004997;28;46424;-68
2022/01/26 03:55:19;;;;;;;9.68;8.77;;;21.00;41.90;;;;;;5004187;28;43632;-69
2022/01/26 03:57:46;;;;;;;10.77;9.68;;;21.00;41.90;;;;;;5015822;28;43987;-69
2022/01/26 04:00:14;;;;;;;10.82;9.75;;;21.00;41.90;;;;;;5003418;28;43579;-69
2022/01/26 04:02:42;;;;;;;9.30;8.40;;;21.00;41.90;;;;;;4998142;28;46160;-69
2022/01/26 04:05:11;;;;;;;10.25;9.15;;;21.00;41.90;;;;;;5006779;28;43489;-69
2022/01/26 04:07:41;;;;;;;9.73;8.63;;;20.90;41.90;;;;;;5004832;28;43553;-68
2022/01/26 04:10:30;;;;;;;9.60;8.65;;;20.90;41.90;;;;;;5007022;28;43584;-69
2022/01/26 04:12:56;;;;;;;9.27;8.38;;;20.90;41.90;;;;;;5021457;28;44006;-68
2022/01/26 04:15:29;;;;;;;9.48;8.48;;;20.90;42.00;;;;;;5021175;28;44238;-68
2022/01/26 04:17:57;;;;;;;9.23;8.30;;;20.90;42.00;;;;;;4984479;28;43513;-69
2022/01/26 04:20:29;;;;;;;9.95;8.93;;;20.90;42.00;;;;;;5005555;28;43530;-69
2022/01/26 04:23:49;;;;;;;9.80;8.80;;;20.90;42.00;;;;;;5004922;28;45335;-68
2022/01/26 04:25:46;;;;;;;9.45;8.45;;;20.90;42.00;;;;;;4987307;28;43621;-68
2022/01/26 04:28:21;;;;;;;9.00;8.10;;;20.90;42.00;;;;;;5005995;28;43681;-68
2022/01/26 04:30:49;;;;;;;9.85;8.70;;;20.90;42.00;;;;;;5006060;28;43603;-68
2022/01/26 04:33:16;;;;;;;9.27;8.32;;;20.80;42.00;;;;;;5010919;28;45764;-69
2022/01/26 04:35:46;;;;;;;8.85;7.95;;;20.80;42.10;;;;;;5006691;28;43769;-68
2022/01/26 04:38:23;;;;;;;10.40;9.10;;;20.80;42.10;;;;;;5005472;28;43468;-69
2022/01/26 04:40:59;;;;;;;9.43;8.43;;;20.80;42.00;;;;;;5007881;28;43481;-68
2022/01/26 04:43:30;;;;;;;9.57;8.65;;;20.80;42.10;;;;;;5007710;28;45570;-69
2022/01/26 04:45:58;;;;;;;9.88;8.48;;;20.80;42.00;;;;;;5002277;28;44447;-69
2022/01/26 04:48:26;;;;;;;9.88;8.68;;;20.80;42.00;;;;;;5010313;28;43449;-69
2022/01/26 04:50:54;;;;;;;9.32;8.00;;;20.80;42.00;;;;;;4994228;28;43537;-68
2022/01/26 04:53:21;;;;;;;9.50;8.43;;;20.80;42.00;;;;;;4998872;28;44639;-69
2022/01/26 04:55:49;;;;;;;9.63;8.60;;;20.70;42.00;;;;;;5005413;28;43492;-68
2022/01/26 04:58:17;;;;;;;8.32;7.45;;;20.70;42.00;;;;;;5007995;28;43448;-69
2022/01/26 05:00:45;;;;;;;9.40;8.40;;;20.70;42.00;;;;;;5006081;28;43473;-69
2022/01/26 05:03:12;;;;;;;8.65;7.75;;;20.70;42.00;;;;;;5014799;28;43934;-69
2022/01/26 05:05:41;;;;;;;10.43;8.52;;;20.70;42.10;;;;;;5006926;28;44453;-68
2022/01/26 05:08:08;;;;;;;9.25;8.35;;;20.70;42.10;;;;;;5005259;28;43492;-69
2022/01/26 05:10:38;;;;;;;9.05;8.15;;;20.70;42.10;;;;;;5013444;28;43507;-69
2022/01/26 05:13:06;;;;;;;8.52;7.72;;;20.60;42.10;;;;;;5018899;28;43960;-68
2022/01/26 05:15:33;;;;;;;8.55;7.72;;;20.60;42.10;;;;;;5017230;28;44905;-68
2022/01/26 05:18:01;;;;;;;8.80;7.90;;;20.60;42.20;;;;;;5021463;28;43487;-69
2022/01/26 05:20:28;;;;;;;9.50;8.60;;;20.60;42.20;;;;;;5019589;28;43678;-68
2022/01/26 05:22:56;;;;;;;10.23;7.68;;;20.60;42.30;;;;;;5001510;28;45751;-69
2022/01/26 05:25:23;;;;;;;9.55;8.55;;;20.60;42.20;;;;;;5018696;28;44109;-67
2022/01/26 05:27:51;;;;;;;8.35;7.55;;;20.60;42.20;;;;;;5022240;28;43531;-69
2022/01/26 05:30:18;;;;;;;7.90;7.20;;;20.50;42.20;;;;;;5016310;28;43725;-69
2022/01/26 05:32:46;;;;;;;8.75;7.85;;;20.50;42.20;;;;;;5017246;28;45679;-68
2022/01/26 05:35:14;;;;;;;9.18;8.10;;;20.50;42.20;;;;;;5021151;28;43697;-68
2022/01/26 05:37:41;;;;;;;8.90;7.68;;;20.50;42.20;;;;;;5018813;28;43594;-68
2022/01/26 05:40:09;;;;;;;9.25;7.93;;;20.50;42.20;;;;;;5022623;28;43490;-68
2022/01/26 05:42:39;;;;;;;8.48;7.65;;;20.50;42.20;;;;;;5017516;28;44056;-68
2022/01/26 05:45:16;;;;;;;9.70;7.90;;;20.50;42.20;;;;;;5020796;28;44766;-68
2022/01/26 05:47:43;;;;;;;8.40;7.55;;;20.60;42.20;;;;;;5017613;28;43497;-69
2022/01/26 05:50:11;;;;;;;8.73;7.85;;;20.50;42.20;;;;;;5017081;28;43576;-69
2022/01/26 05:52:39;;;;;;;9.73;8.57;;;20.50;42.10;;;;;;5019937;28;45739;-68
2022/01/26 05:55:06;;;;;;;8.93;7.88;;;20.60;42.10;;;;;;5021095;28;43638;-68
2022/01/26 05:57:34;;;;;;;10.15;8.57;;;20.50;42.10;;;;;;5022231;28;43498;-68
2022/01/26 06:00:03;;;;;;;8.65;7.75;;;20.50;42.10;;;;;;5018360;28;43637;-68
2022/01/26 06:02:41;;;;;;;9.23;7.85;;;20.50;42.10;;;;;;5011594;28;44164;-68
2022/01/26 06:05:09;;;;;;;9.05;8.15;;;20.50;42.10;;;;;;5018297;28;44389;-68
2022/01/26 06:07:37;;;;;;;9.27;8.38;;;20.50;42.10;;;;;;5014387;28;43428;-69
2022/01/26 06:10:05;;;;;;;9.73;8.73;;;20.50;42.10;;;;;;5018442;28;43549;-68
2022/01/26 06:12:35;;;;;;;8.80;7.90;;;20.50;42.70;;;;;;5008053;28;45699;-69
2022/01/26 06:15:04;;;;;;;9.43;8.43;;;20.50;42.00;;;;;;5003950;28;44985;-68
2022/01/26 06:17:31;;;;;;;8.73;7.75;;;20.50;42.00;;;;;;5022324;28;43472;-68
2022/01/26 06:19:59;;;;;;;8.73;7.82;;;20.50;42.00;;;;;;5006304;28;43515;-68
2022/01/26 06:22:27;;;;;;;9.02;8.18;;;20.50;42.00;;;;;;5009581;28;43950;-67
2022/01/26 06:24:56;;;;;;;8.93;8.02;;;20.50;42.00;;;;;;5006424;28;45542;-69
2022/01/26 06:27:23;;;;;;;8.43;7.63;;;20.50;42.00;;;;;;4985343;28;44000;-68
2022/01/26 06:29:51;;;;;;;9.23;8.32;;;20.60;42.00;;;;;;5002447;28;43499;-68
2022/01/26 06:32:20;;;;;;;9.23;8.32;;;20.50;41.90;;;;;;5005258;28;45753;-67
2022/01/26 06:34:48;;;;;;;9.23;8.30;;;20.60;42.00;;;;;;5001449;28;44113;-68
2022/01/26 06:37:16;;;;;;;9.13;8.23;;;20.60;41.90;;;;;;5005258;28;43432;-69
2022/01/26 06:39:44;;;;;;;11.10;8.65;;;20.60;41.90;;;;;;5005748;28;43674;-69
2022/01/26 06:42:14;;;;;;;9.90;8.90;;;20.50;41.90;;;;;;4987381;28;45720;-69
2022/01/26 06:45:28;;;;;;;9.77;8.77;;;20.60;41.90;;;;;;5005621;28;43497;-68
2022/01/26 06:47:52;;;;;;;9.48;8.57;;;20.60;41.90;;;;;;4997260;28;43476;-68
2022/01/26 06:50:20;;;;;;;9.40;8.50;;;20.60;41.90;;;;;;5007892;28;43508;-69
2022/01/26 06:52:48;;;;;;;11.10;8.70;;;20.60;42.00;;;;;;4999838;28;44644;-68
2022/01/26 06:55:17;;;;;;;9.27;8.27;;;20.60;42.00;;;;;;5002900;28;44591;-67
2022/01/26 06:57:45;;;;;;;9.38;8.48;;;20.60;42.10;;;;;;5002487;28;43508;-68
2022/01/26 07:00:14;;;;;;;9.77;8.75;;;20.60;41.90;;;;;;5018488;28;43489;-68
2022/01/26 07:02:42;;;;;;;9.50;8.48;;;20.60;42.10;;;;;;5006905;28;44071;-68
2022/01/26 07:05:11;;;;;;;10.13;9.00;;;20.60;42.00;;;;;;4998491;28;44279;-67
2022/01/26 07:07:39;;;;;;;9.70;8.70;;;20.60;42.00;;;;;;5004730;28;43416;-67
2022/01/26 07:10:08;;;;;;;10.35;9.10;;;20.60;42.00;;;;;;5003336;28;43589;-66
2022/01/26 07:12:36;;;;;;;9.85;8.80;;;20.60;41.90;;;;;;5017788;28;44927;-68
2022/01/26 07:23:06;;;;;;;12.77;8.77;;;20.70;41.90;;;;;;5018731;28;45255;-67
2022/01/26 07:25:35;;;;;;;10.27;8.73;;;20.70;42.00;;;;;;5019407;28;43534;-69
2022/01/26 07:28:04;;;;;;;8.73;7.82;;;20.70;42.00;;;;;;5017589;28;43599;-68
2022/01/26 07:30:35;;;;;;;9.95;8.95;;;20.70;42.00;;;;;;5021509;28;43482;-69
2022/01/26 07:33:03;;;;;;;9.35;8.45;;;20.70;41.90;;;;;;5015595;28;44805;-68
2022/01/26 07:35:31;;;;;;;9.70;7.97;;;20.70;41.90;;;;;;5016407;28;43711;-68
2022/01/26 07:38:02;;;;;;;8.57;7.68;;;20.70;41.90;;;;;;5019411;28;43463;-69
2022/01/26 07:40:29;;;;;;;8.73;7.83;;;20.80;41.90;;;;;;5009868;28;43579;-68
2022/01/26 07:42:57;;;;;;;9.38;8.38;;;20.70;41.90;;;;;;5015956;28;44663;-68
2022/01/26 07:45:25;;;;;;;9.07;8.13;;;20.70;41.90;;;;;;5011305;28;43483;-69
2022/01/26 07:47:55;;;;;;;8.65;7.68;;;20.80;42.00;;;;;;5003585;28;43489;-68
2022/01/26 07:50:23;;;;;;;8.52;7.57;;;20.80;42.00;;;;;;5018791;28;43484;-68
2022/01/26 07:52:50;;;;;;;8.52;7.63;;;20.80;42.00;;;;;;5020525;28;44016;-66
2022/01/26 07:55:20;;;;;;;8.75;7.85;;;20.80;41.90;;;;;;5015391;28;43547;-69
2022/01/26 07:57:51;;;;;;;9.23;8.10;;;20.80;41.90;;;;;;5019729;28;43538;-68
2022/01/26 08:00:19;;;;;;;8.85;7.95;;;20.80;42.00;;;;;;5018714;28;43635;-69
2022/01/26 08:02:47;;;;;;;8.90;8.00;;;20.80;42.00;;;;;;5020474;28;43922;-69
2022/01/26 08:05:15;;;;;;;8.15;7.35;;;20.80;42.00;;;;;;5018476;28;43583;-68
2022/01/26 08:07:44;;;;;;;8.98;8.07;;;20.80;42.00;;;;;;5028015;28;43519;-68
2022/01/26 08:10:11;;;;;;;8.80;7.90;;;20.80;42.10;;;;;;5017163;28;43602;-69
2022/01/26 08:12:39;;;;;;;9.00;7.97;;;20.80;42.00;;;;;;5015504;28;44128;-70
2022/01/26 08:15:26;;;;;;;8.52;7.68;;;20.80;42.10;;;;;;5010213;28;43555;-68
2022/01/26 08:17:55;;;;;;;9.05;8.13;;;20.80;42.00;;;;;;5019587;28;43520;-69
2022/01/26 08:20:23;;;;;;;8.88;7.97;;;20.90;42.00;;;;;;5017475;28;43514;-67
2022/01/26 08:22:52;;;;;;;9.00;8.10;;;20.80;42.70;;;;;;5019452;28;44041;-68
2022/01/26 08:25:21;;;;;;;8.45;7.65;;;20.90;42.00;;;;;;5004554;28;43560;-67
2022/01/26 08:27:56;;;;;;;9.38;8.27;;;20.90;42.00;;;;;;5017243;28;43508;-68
2022/01/26 08:30:23;;;;;;;8.80;7.90;;;20.90;42.00;;;;;;5020543;28;43545;-69
2022/01/26 08:32:51;;;;;;;8.32;7.53;;;20.90;42.00;;;;;;5019495;28;44188;-70
2022/01/26 08:35:18;;;;;;;8.40;7.60;;;20.90;42.00;;;;;;5020181;28;44446;-68
2022/01/26 08:37:47;;;;;;;8.63;7.82;;;20.90;42.00;;;;;;5020890;28;43515;-67
2022/01/26 08:40:14;;;;;;;10.20;8.43;;;20.90;42.00;;;;;;5016396;28;43570;-68
2022/01/26 08:42:42;;;;;;;8.35;7.55;;;20.90;42.00;;;;;;5016375;28;45654;-67
2022/01/26 08:45:10;;;;;;;8.55;7.75;;;20.90;41.90;;;;;;5018440;28;43562;-67
2022/01/26 08:47:38;;;;;;;8.48;7.57;;;20.90;42.00;;;;;;5019537;28;43377;-68
2022/01/26 08:50:07;;;;;;;8.82;7.93;;;20.90;42.00;;;;;;5019716;28;43631;-67
2022/01/26 08:52:35;;;;;;;8.30;7.50;;;20.90;42.00;;;;;;5028721;28;45778;-67
2022/01/26 08:55:03;;;;;;;8.77;7.88;;;21.00;42.00;;;;;;5014625;28;43539;-67
2022/01/26 08:57:31;;;;;;;8.68;7.78;;;21.00;42.00;;;;;;5022039;28;43523;-67
2022/01/26 08:59:59;;;;;;;8.85;7.95;;;21.00;42.00;;;;;;5023708;28;43529;-68
2022/01/26 09:02:27;;;;;;;8.02;7.22;;;21.00;42.00;;;;;;5022932;28;43948;-67
2022/01/26 09:04:55;;;;;;;8.27;7.45;;;21.00;41.90;;;;;;5024104;28;43488;-67
2022/01/26 09:07:22;;;;;;;8.45;7.63;;;21.10;41.90;;;;;;5019769;28;43499;-67
2022/01/26 09:09:50;;;;;;;8.90;8.00;;;21.10;41.90;;;;;;5021497;28;44361;-68
2022/01/26 09:12:19;;;;;;;9.15;8.25;;;21.10;41.90;;;;;;5008113;28;44316;-68
2022/01/26 09:14:47;;;;;;;9.15;8.30;;;21.10;41.90;;;;;;5002486;28;44353;-68
2022/01/26 09:17:15;;;;;;;8.50;7.70;;;21.10;42.00;;;;;;5003755;28;43461;-68
2022/01/26 09:19:44;;;;;;;8.77;7.88;;;21.10;42.00;;;;;;5006108;28;43506;-65
2022/01/26 09:22:14;;;;;;;9.02;8.13;;;21.10;42.30;;;;;;5004708;28;43950;-65
2022/01/26 09:24:44;;;;;;;9.35;7.80;;;21.10;42.10;;;;;;5006690;28;43842;-67
2022/01/26 09:27:14;;;;;;;10.68;7.85;;;21.20;42.20;;;;;;5003921;28;44014;-62
2022/01/26 09:29:43;;;;;;;8.30;7.50;;;21.20;42.20;;;;;;5020466;28;43453;-63
2022/01/26 09:32:11;;;;;;;9.13;7.80;;;21.30;42.20;;;;;;5021775;28;43828;-63
2022/01/26 09:34:40;;;;;;;9.60;8.13;;;21.40;42.10;;;;;;5022200;28;43571;-63
2022/01/26 09:37:13;;;;;;;8.70;7.80;;;21.50;42.00;;;;;;5022390;28;43431;-62
2022/01/26 09:39:42;;;;;;;8.00;7.20;;;21.60;41.80;;;;;;5023957;28;43584;-65
2022/01/26 09:42:11;;;;;;;10.38;8.13;;;21.70;41.70;;;;;;5022941;28;43875;-63
2022/01/26 09:44:39;;;;;;;8.77;7.88;;;21.80;41.50;;;;;;5022216;28;43555;-63
2022/01/26 09:47:08;;;;;;;8.82;7.93;;;21.80;41.50;;;;;;5024113;28;43533;-62
2022/01/26 09:49:36;;;;;;;10.32;8.40;;;21.90;41.30;;;;;;5023923;28;43568;-64
2022/01/26 09:52:20;;;;;;;10.95;7.55;;;22.00;41.20;;;;;;5020247;28;44102;-67
2022/01/26 09:54:48;;;;;;;10.07;8.48;;;22.00;41.30;;;;;;5019452;28;43556;-65
2022/01/26 09:57:27;;;;;;;8.57;7.78;;;22.10;41.10;;;;;;5008171;28;43489;-65
2022/01/26 09:59:55;;;;;;;9.05;7.97;;;22.20;40.90;;;;;;5023676;28;44113;-65
2022/01/26 10:02:31;;;;;;;8.95;7.90;;;22.30;40.90;;;;;;5002544;28;44079;-64
2022/01/26 10:05:08;;;;;;;10.10;8.98;;;22.40;40.50;;;;;;5001709;28;43436;-66
2022/01/26 10:19:09;;;;;;;10.52;8.82;;;22.80;40.70;;;;;;5023574;28;43543;-63
2022/01/26 10:21:52;;;;;;;9.60;8.60;;;22.90;40.80;;;;;;5022156;28;43397;-64
2022/01/26 10:24:26;;;;;;;9.43;7.90;;;23.00;40.80;;;;;;5022537;28;43797;-66
2022/01/26 10:26:59;;;;;;;9.55;8.45;;;23.10;40.80;;;;;;5004866;28;43747;-65
2022/01/26 10:29:33;;;;;;;10.70;7.93;;;23.20;40.70;;;;;;5017537;28;43536;-63
2022/01/26 10:32:11;;;;;;;9.25;8.35;;;23.20;40.40;;;;;;5019627;28;43492;-64
2022/01/26 10:34:39;;;;;;;10.68;8.32;;;23.40;40.40;;;;;;5021980;28;44819;-62
2022/01/26 10:37:06;;;;;;;9.30;8.20;;;23.40;40.30;;;;;;5020290;28;43545;-65
2022/01/26 10:39:43;;;;;;;10.10;7.55;;;23.50;40.20;;;;;;5005471;28;43556;-65
2022/01/26 10:42:17;;;;;;;8.95;7.53;;;23.50;40.30;;;;;;5005417;28;43511;-65
2022/01/26 10:47:25;;;;;;;9.45;7.28;;;23.70;40.00;;;;;;5020698;28;43503;-64
2022/01/26 10:50:29;;;;;;;8.18;7.30;;;23.80;40.10;;;;;;5019973;28;43476;-67
2022/01/26 10:53:15;;;;;;;10.27;7.00;;;23.90;39.60;;;;;;5007380;28;43573;-66
2022/01/26 10:55:44;;;;;;;8.00;7.20;;;24.10;40.10;;;;;;4999611;28;45303;-67
2022/01/26 10:58:16;;;;;;;10.40;7.78;;;24.10;39.40;;;;;;5003000;28;43470;-67
2022/01/26 11:00:44;;;;;;;10.40;7.25;;;24.20;39.20;;;;;;5005257;28;43531;-67
2022/01/26 11:03:12;;;;;;;10.23;7.63;;;24.30;39.10;;;;;;5022213;28;43615;-67
2022/01/26 11:05:40;;;;;;;8.95;7.57;;;24.30;38.90;;;;;;5022208;28;43840;-66
2022/01/26 11:08:12;;;;;;;9.02;7.18;;;24.40;39.00;;;;;;5004195;28;45040;-66
2022/01/26 11:10:40;;;;;;;8.48;6.53;;;24.50;39.00;;;;;;5000383;28;43501;-66
2022/01/26 11:13:07;;;;;;;10.07;7.20;;;24.50;38.90;;;;;;5022052;28;43642;-66
2022/01/26 11:15:36;;;;;;;9.32;7.25;;;24.50;38.90;;;;;;5001128;28;44320;-68
2022/01/26 11:18:21;;;;;;;8.52;7.00;;;24.50;38.90;;;;;;5002979;28;43711;-67
2022/01/26 11:20:52;;;;;;;8.48;6.80;;;24.50;39.00;;;;;;4998639;28;43517;-67
2022/01/26 11:23:36;;;;;;;8.82;6.82;;;24.50;39.00;;;;;;5021194;28;43606;-67
2022/01/26 11:26:04;;;;;;;7.95;6.60;;;24.50;39.00;;;;;;5002582;28;44019;-67
2022/01/26 11:28:32;;;;;;;9.23;6.97;;;24.50;39.20;;;;;;5019235;28;43437;-68
2022/01/26 11:31:05;;;;;;;7.43;6.43;;;24.50;39.10;;;;;;4990179;28;43473;-66
2022/01/26 11:33:35;;;;;;;8.50;6.90;;;24.50;39.20;;;;;;5003553;28;43503;-66
2022/01/26 11:36:05;;;;;;;8.65;6.30;;;24.50;39.20;;;;;;5001721;28;44084;-67
2022/01/26 11:47:17;;;;;;;8.05;6.53;;;24.40;39.30;;;;;;5020786;28;44677;-67
2022/01/26 11:49:46;;;;;;;10.27;6.60;;;24.40;39.40;;;;;;5017415;28;43414;-67
2022/01/26 11:52:26;;;;;;;11.02;6.65;;;24.30;39.40;;;;;;5003204;28;43544;-67
2022/01/26 11:54:59;;;;;;;9.60;7.22;;;24.30;39.40;;;;;;5020046;28;43480;-68
2022/01/26 11:57:49;;;;;;;8.75;7.07;;;24.30;39.30;;;;;;4986802;28;45272;-67
2022/01/26 12:00:33;;;;;;;9.43;6.72;;;24.20;39.30;;;;;;5005056;28;44248;-66
2022/01/26 12:03:00;;;;;;;9.98;6.63;;;24.10;39.40;;;;;;5002324;28;43455;-66
2022/01/26 12:05:28;;;;;;;9.68;6.95;;;24.10;39.50;;;;;;5002948;28;43655;-68
2022/01/26 12:08:00;;;;;;;8.82;6.80;;;24.10;39.60;;;;;;5005095;28;44338;-67
2022/01/26 12:10:32;;;;;;;7.80;6.60;;;24.10;39.60;;;;;;5005347;28;43815;-67
2022/01/26 12:13:04;;;;;;;9.55;6.68;;;24.00;39.60;;;;;;5020731;28;43424;-67
2022/01/26 12:18:53;;;;;;;8.10;6.50;;;23.90;40.30;;;;;;4997112;28;43877;-67
2022/01/26 12:35:57;;;;;;;10.23;7.65;;;23.80;39.60;;;;;;5009574;28;43624;-67
2022/01/26 12:38:16;;;;;;;8.88;7.70;;;23.80;39.70;;;;;;5001563;28;43512;-68
2022/01/26 12:44:07;;;;;;;9.82;7.85;;;23.70;39.60;;;;;;4952346;28;44205;-68
2022/01/26 12:46:37;;;;;;;10.60;8.38;;;23.60;39.60;;;;;;4948309;28;43539;-68
2022/01/26 12:49:15;;;;;;;8.80;7.60;;;23.60;39.60;;;;;;4996315;28;43548;-68
2022/01/26 12:51:47;;;;;;;10.13;7.80;;;23.60;39.60;;;;;;5006259;28;45441;-68
2022/01/26 12:54:16;;;;;;;11.73;8.02;;;23.60;39.60;;;;;;5006606;28;44764;-68
2022/01/26 12:56:44;;;;;;;12.10;8.18;;;23.50;39.50;;;;;;5008839;28;43500;-68
2022/01/26 12:59:19;;;;;;;10.80;8.15;;;23.60;39.60;;;;;;5009557;28;43566;-68
2022/01/26 13:01:52;;;;;;;11.40;7.82;;;23.50;39.50;;;;;;4993000;28;45938;-68
2022/01/26 13:04:20;;;;;;;12.00;7.85;;;23.50;39.50;;;;;;5004843;28;43800;-68
2022/01/26 13:06:51;;;;;;;8.77;7.72;;;23.50;39.50;;;;;;5005233;28;43465;-68
2022/01/26 13:09:27;;;;;;;9.77;7.72;;;23.50;39.60;;;;;;5003112;28;43545;-68
2022/01/26 13:12:06;;;;;;;9.93;8.57;;;23.50;39.60;;;;;;5022098;28;44140;-68
2022/01/26 13:17:36;;;;;;;10.50;7.55;;;23.40;39.60;;;;;;5006032;28;43515;-68
2022/01/26 13:23:09;;;;;;;9.05;7.72;;;23.40;39.70;;;;;;5006172;28;43920;-68
2022/01/26 13:34:01;;;;;;;9.35;7.75;;;23.30;39.80;;;;;;5001960;28;43949;-68
2022/01/26 13:41:37;;;;;;;9.18;7.50;;;23.30;39.90;;;;;;5019045;28;43430;-68
2022/01/26 13:49:49;;;;;;;8.98;6.75;;;23.20;39.90;;;;;;5008300;28;43461;-68
2022/01/26 13:52:24;;;;;;;10.27;7.70;;;23.20;40.00;;;;;;5008381;28;43464;-68
2022/01/26 13:55:15;;;;;;;9.20;7.57;;;23.20;39.90;;;;;;5006911;28;46126;-68
2022/01/26 14:00:11;;;;;;;11.02;7.55;;;23.10;39.90;;;;;;5001168;28;43541;-67
2022/01/26 14:02:39;;;;;;;10.15;7.78;;;23.20;40.00;;;;;;5006732;28;43444;-67
2022/01/26 14:05:08;;;;;;;9.27;7.45;;;23.20;40.00;;;;;;5006145;28;44189;-68
2022/01/26 14:07:35;;;;;;;8.60;7.18;;;23.10;39.90;;;;;;5004339;28;44373;-68
2022/01/26 14:10:04;;;;;;;7.70;6.90;;;23.10;39.90;;;;;;4999687;28;43523;-68
2022/01/26 14:12:37;;;;;;;9.35;7.20;;;23.10;39.90;;;;;;5009308;28;43608;-68
2022/01/26 14:15:07;;;;;;;9.07;7.45;;;23.10;40.00;;;;;;5008979;28;43929;-68
2022/01/26 14:17:56;;;;;;;8.13;7.07;;;23.10;40.00;;;;;;5004058;28;45040;-68
2022/01/26 14:25:58;;;;;;;10.77;7.65;;;23.00;39.90;;;;;;5005815;28;44721;-68
2022/01/26 14:28:32;;;;;;;8.05;7.05;;;23.00;40.00;;;;;;5009112;28;43575;-67
2022/01/26 14:31:24;;;;;;;9.18;7.60;;;23.00;39.90;;;;;;5018517;28;44196;-68
2022/01/26 14:35:01;;;;;;;8.85;7.28;;;23.00;39.90;;;;;;5009818;28;43413;-68
2022/01/26 15:09:52;;;;;;;8.30;6.88;;;22.80;40.10;;;;;;5003659;28;43958;-67
2022/01/26 15:43:11;;;;;;;9.10;6.40;;;22.60;40.30;;;;;;5001878;28;44206;-67
2022/01/26 15:51:08;;;;;;;8.20;6.50;;;22.60;40.30;;;;;;5007863;28;44085;-67
2022/01/26 16:07:20;;;;;;;8.98;6.32;;;22.50;40.50;;;;;;4981272;28;43528;-67
2022/01/26 16:12:58;;;;;;;10.50;6.93;;;22.40;40.50;;;;;;4949966;28;43999;-67
2022/01/26 18:17:05;;;;;;;6.32;5.70;;;22.00;41.10;;;;;;5020973;28;43954;-68
2022/01/26 18:33:06;;;;;;;7.22;5.95;;;22.00;41.20;;;;;;5016027;28;43454;-66
2022/01/26 18:49:21;;;;;;;5.75;5.15;;;21.90;41.10;;;;;;5014153;28;43901;-67
2022/01/26 18:51:56;;;;;;;6.15;5.13;;;21.90;41.10;;;;;;5017938;28;43686;-67
2022/01/26 18:54:35;;;;;;;5.63;4.90;;;21.90;41.10;;;;;;5012189;28;43444;-67
2022/01/26 18:57:06;;;;;;;5.53;4.70;;;22.00;41.20;;;;;;5018731;28;43461;-67
2022/01/26 18:59:37;;;;;;;5.75;5.18;;;21.90;41.20;;;;;;5019975;28;43931;-67
2022/01/26 19:02:09;;;;;;;6.93;4.60;;;21.90;41.20;;;;;;5020190;28;43558;-68
2022/01/26 19:04:57;;;;;;;5.10;4.60;;;21.90;41.20;;;;;;5016478;28;43453;-68
2022/01/26 19:07:25;;;;;;;5.53;5.00;;;21.90;41.30;;;;;;5017228;28;43622;-68
2022/01/26 19:09:54;;;;;;;4.85;4.45;;;21.90;41.30;;;;;;5014340;28;45423;-68
2022/01/26 19:12:24;;;;;;;5.57;4.68;;;21.90;41.30;;;;;;5015942;28;43572;-67
2022/01/26 19:14:57;;;;;;;5.25;4.32;;;21.90;41.30;;;;;;5001491;28;43521;-67
2022/01/26 19:17:43;;;;;;;5.35;4.40;;;21.90;41.30;;;;;;4987807;28;43618;-67
2022/01/26 19:27:50;;;;;;;4.85;4.28;;;21.90;41.30;;;;;;5001712;28;43747;-68
2022/01/26 19:33:06;;;;;;;5.63;4.72;;;21.80;41.20;;;;;;5000401;28;43436;-67
2022/01/26 19:40:21;;;;;;;5.10;4.60;;;21.80;41.20;;;;;;5004948;28;43540;-68
2022/01/26 19:44:07;;;;;;;6.30;4.47;;;21.70;41.20;;;;;;4999536;28;43715;-67
2022/01/26 19:52:10;;;;;;;7.13;5.15;;;21.80;41.20;;;;;;5003973;28;44229;-68
2022/01/26 19:54:47;;;;;;;7.68;4.57;;;21.80;41.30;;;;;;5007154;28;43508;-68
2022/01/26 19:57:20;;;;;;;4.65;4.18;;;21.80;41.20;;;;;;5017833;28;43493;-68
2022/01/26 19:59:50;;;;;;;5.63;4.18;;;21.80;41.20;;;;;;5007369;28;43645;-67
2022/01/26 20:02:17;;;;;;;6.28;4.70;;;21.80;41.20;;;;;;4995928;28;44669;-67